sensor_id;sensor_type;location;lat;lon;timestamp;P1;durP1;ratioP1;P2;durP2;ratioP2
26474;SDS011;14161;52.270;10.334;2022-09-09T00:00:13;0.80;;;0.70;;
26474;SDS011;14161;52.270;10.334;2022-09-09T00:02:41;1.35;;;0.60;;
26474;SDS011;14161;52.270;10.334;2022-09-09T00:05:24;1.65;;;0.60;;
26474;SDS011;14161;52.270;10.334;2022-09-09T00:07:55;1.35;;;0.70;;
26474;SDS011;14161;52.270;10.334;2022-09-09T00:10:37;0.60;;;0.47;;
26474;SDS011;14161;52.270;10.334;2022-09-09T00:16:14;1.45;;;0.70;;
26474;SDS011;14161;52.270;10.334;2022-09-09T00:21:35;0.70;;;0.60;;
26474;SDS011;14161;52.270;10.334;2022-09-09T00:24:09;1.23;;;0.50;;
26474;SDS011;14161;52.270;10.334;2022-09-09T00:26:43;0.68;;;0.55;;
26474;SDS011;14161;52.270;10.334;2022-09-09T00:31:59;1.05;;;0.50;;
26474;SDS011;14161;52.270;10.334;2022-09-09T00:34:30;1.20;;;0.70;;
26474;SDS011;14161;52.270;10.334;2022-09-09T00:36:56;0.70;;;0.68;;
26474;SDS011;14161;52.270;10.334;2022-09-09T00:39:31;2.33;;;0.65;;
26474;SDS011;14161;52.270;10.334;2022-09-09T00:52:41;2.15;;;0.73;;
26474;SDS011;14161;52.270;10.334;2022-09-09T00:55:17;1.00;;;0.50;;
26474;SDS011;14161;52.270;10.334;2022-09-09T00:57:51;1.88;;;0.73;;
26474;SDS011;14161;52.270;10.334;2022-09-09T01:05:39;1.85;;;0.50;;
26474;SDS011;14161;52.270;10.334;2022-09-09T01:08:24;0.80;;;0.40;;
26474;SDS011;14161;52.270;10.334;2022-09-09T01:11:14;1.65;;;0.70;;
26474;SDS011;14161;52.270;10.334;2022-09-09T01:13:56;0.65;;;0.55;;
26474;SDS011;14161;52.270;10.334;2022-09-09T01:16:29;0.50;;;0.47;;
26474;SDS011;14161;52.270;10.334;2022-09-09T01:18:55;0.60;;;0.40;;
26474;SDS011;14161;52.270;10.334;2022-09-09T01:24:45;0.63;;;0.40;;
26474;SDS011;14161;52.270;10.334;2022-09-09T01:27:30;1.00;;;0.50;;
26474;SDS011;14161;52.270;10.334;2022-09-09T01:29:58;2.60;;;0.90;;
26474;SDS011;14161;52.270;10.334;2022-09-09T01:32:42;2.70;;;0.70;;
26474;SDS011;14161;52.270;10.334;2022-09-09T01:35:15;0.47;;;0.40;;
26474;SDS011;14161;52.270;10.334;2022-09-09T01:37:59;1.63;;;0.60;;
26474;SDS011;14161;52.270;10.334;2022-09-09T01:40:25;0.40;;;0.40;;
26474;SDS011;14161;52.270;10.334;2022-09-09T01:42:52;1.40;;;0.60;;
26474;SDS011;14161;52.270;10.334;2022-09-09T01:45:19;0.93;;;0.52;;
26474;SDS011;14161;52.270;10.334;2022-09-09T01:47:44;0.60;;;0.60;;
26474;SDS011;14161;52.270;10.334;2022-09-09T01:50:23;0.75;;;0.55;;
26474;SDS011;14161;52.270;10.334;2022-09-09T01:52:50;1.33;;;0.55;;
26474;SDS011;14161;52.270;10.334;2022-09-09T01:55:24;2.10;;;0.70;;
26474;SDS011;14161;52.270;10.334;2022-09-09T02:00:47;0.50;;;0.40;;
26474;SDS011;14161;52.270;10.334;2022-09-09T02:08:50;1.02;;;0.65;;
26474;SDS011;14161;52.270;10.334;2022-09-09T02:11:18;2.88;;;0.80;;
26474;SDS011;14161;52.270;10.334;2022-09-09T02:13:53;0.60;;;0.50;;
26474;SDS011;14161;52.270;10.334;2022-09-09T02:16:33;1.00;;;0.50;;
26474;SDS011;14161;52.270;10.334;2022-09-09T02:19:08;1.35;;;0.65;;
26474;SDS011;14161;52.270;10.334;2022-09-09T02:21:55;1.05;;;0.47;;
26474;SDS011;14161;52.270;10.334;2022-09-09T02:24:21;1.33;;;0.70;;
26474;SDS011;14161;52.270;10.334;2022-09-09T02:26:54;1.13;;;0.50;;
26474;SDS011;14161;52.270;10.334;2022-09-09T02:29:26;1.05;;;0.52;;
26474;SDS011;14161;52.270;10.334;2022-09-09T02:31:54;1.42;;;0.50;;
26474;SDS011;14161;52.270;10.334;2022-09-09T02:34:25;3.03;;;0.65;;
26474;SDS011;14161;52.270;10.334;2022-09-09T02:36:53;1.92;;;0.85;;
26474;SDS011;14161;52.270;10.334;2022-09-09T02:39:19;3.35;;;0.80;;
26474;SDS011;14161;52.270;10.334;2022-09-09T02:41:45;1.15;;;0.60;;
26474;SDS011;14161;52.270;10.334;2022-09-09T02:44:13;1.15;;;0.52;;
26474;SDS011;14161;52.270;10.334;2022-09-09T02:52:26;2.90;;;0.60;;
26474;SDS011;14161;52.270;10.334;2022-09-09T02:54:57;1.25;;;0.50;;
26474;SDS011;14161;52.270;10.334;2022-09-09T02:57:27;0.30;;;0.30;;
26474;SDS011;14161;52.270;10.334;2022-09-09T02:59:56;1.75;;;0.70;;
26474;SDS011;14161;52.270;10.334;2022-09-09T03:02:22;0.73;;;0.60;;
26474;SDS011;14161;52.270;10.334;2022-09-09T03:04:53;2.15;;;0.70;;
26474;SDS011;14161;52.270;10.334;2022-09-09T03:07:19;2.47;;;0.70;;
26474;SDS011;14161;52.270;10.334;2022-09-09T03:09:46;1.92;;;0.60;;
26474;SDS011;14161;52.270;10.334;2022-09-09T03:12:11;1.88;;;0.70;;
26474;SDS011;14161;52.270;10.334;2022-09-09T03:14:38;1.48;;;0.55;;
26474;SDS011;14161;52.270;10.334;2022-09-09T03:17:07;2.78;;;0.70;;
26474;SDS011;14161;52.270;10.334;2022-09-09T03:19:38;2.15;;;0.70;;
26474;SDS011;14161;52.270;10.334;2022-09-09T03:22:08;0.73;;;0.50;;
26474;SDS011;14161;52.270;10.334;2022-09-09T03:24:37;0.70;;;0.50;;
26474;SDS011;14161;52.270;10.334;2022-09-09T03:27:03;2.78;;;1.02;;
26474;SDS011;14161;52.270;10.334;2022-09-09T03:29:29;2.08;;;0.77;;
26474;SDS011;14161;52.270;10.334;2022-09-09T03:31:57;0.85;;;0.47;;
26474;SDS011;14161;52.270;10.334;2022-09-09T03:34:23;1.63;;;0.60;;
26474;SDS011;14161;52.270;10.334;2022-09-09T03:36:49;3.17;;;0.70;;
26474;SDS011;14161;52.270;10.334;2022-09-09T03:39:15;1.70;;;0.80;;
26474;SDS011;14161;52.270;10.334;2022-09-09T03:41:41;1.77;;;0.90;;
26474;SDS011;14161;52.270;10.334;2022-09-09T03:44:07;1.20;;;0.80;;
26474;SDS011;14161;52.270;10.334;2022-09-09T03:46:38;1.45;;;0.60;;
26474;SDS011;14161;52.270;10.334;2022-09-09T03:49:04;1.08;;;0.70;;
26474;SDS011;14161;52.270;10.334;2022-09-09T03:51:30;1.13;;;0.60;;
26474;SDS011;14161;52.270;10.334;2022-09-09T03:53:56;1.25;;;0.73;;
26474;SDS011;14161;52.270;10.334;2022-09-09T03:56:24;0.98;;;0.80;;
26474;SDS011;14161;52.270;10.334;2022-09-09T03:58:50;1.02;;;0.70;;
26474;SDS011;14161;52.270;10.334;2022-09-09T04:01:16;1.88;;;0.65;;
26474;SDS011;14161;52.270;10.334;2022-09-09T04:03:43;3.08;;;0.90;;
26474;SDS011;14161;52.270;10.334;2022-09-09T04:06:10;2.00;;;0.90;;
26474;SDS011;14161;52.270;10.334;2022-09-09T04:08:38;1.40;;;0.60;;
26474;SDS011;14161;52.270;10.334;2022-09-09T04:11:04;1.98;;;0.90;;
26474;SDS011;14161;52.270;10.334;2022-09-09T04:13:33;1.90;;;0.70;;
26474;SDS011;14161;52.270;10.334;2022-09-09T04:16:00;3.78;;;0.80;;
26474;SDS011;14161;52.270;10.334;2022-09-09T04:18:27;2.13;;;0.75;;
26474;SDS011;14161;52.270;10.334;2022-09-09T04:20:53;1.52;;;0.70;;
26474;SDS011;14161;52.270;10.334;2022-09-09T04:23:22;1.80;;;0.70;;
26474;SDS011;14161;52.270;10.334;2022-09-09T04:25:53;2.13;;;0.60;;
26474;SDS011;14161;52.270;10.334;2022-09-09T04:28:19;2.65;;;0.90;;
26474;SDS011;14161;52.270;10.334;2022-09-09T04:30:46;4.97;;;1.15;;
26474;SDS011;14161;52.270;10.334;2022-09-09T04:33:12;1.70;;;0.80;;
26474;SDS011;14161;52.270;10.334;2022-09-09T04:35:38;1.80;;;0.68;;
26474;SDS011;14161;52.270;10.334;2022-09-09T04:38:05;2.92;;;0.90;;
26474;SDS011;14161;52.270;10.334;2022-09-09T04:40:33;1.75;;;0.77;;
26474;SDS011;14161;52.270;10.334;2022-09-09T04:42:59;2.20;;;0.75;;
26474;SDS011;14161;52.270;10.334;2022-09-09T04:45:26;2.80;;;0.80;;
26474;SDS011;14161;52.270;10.334;2022-09-09T04:47:52;2.50;;;0.60;;
26474;SDS011;14161;52.270;10.334;2022-09-09T04:50:18;2.15;;;0.77;;
26474;SDS011;14161;52.270;10.334;2022-09-09T04:52:45;2.13;;;0.80;;
26474;SDS011;14161;52.270;10.334;2022-09-09T04:55:11;3.15;;;0.70;;
26474;SDS011;14161;52.270;10.334;2022-09-09T04:57:39;8.90;;;1.52;;
26474;SDS011;14161;52.270;10.334;2022-09-09T05:00:05;1.30;;;0.73;;
26474;SDS011;14161;52.270;10.334;2022-09-09T05:02:38;3.03;;;0.80;;
26474;SDS011;14161;52.270;10.334;2022-09-09T05:05:05;4.85;;;1.23;;
26474;SDS011;14161;52.270;10.334;2022-09-09T05:07:31;4.57;;;0.90;;
26474;SDS011;14161;52.270;10.334;2022-09-09T05:09:57;1.40;;;0.50;;
26474;SDS011;14161;52.270;10.334;2022-09-09T05:12:24;3.08;;;0.90;;
26474;SDS011;14161;52.270;10.334;2022-09-09T05:14:51;2.50;;;0.80;;
26474;SDS011;14161;52.270;10.334;2022-09-09T05:17:16;1.70;;;0.75;;
26474;SDS011;14161;52.270;10.334;2022-09-09T05:19:43;3.25;;;1.10;;
26474;SDS011;14161;52.270;10.334;2022-09-09T05:22:09;2.53;;;0.75;;
26474;SDS011;14161;52.270;10.334;2022-09-09T05:24:41;0.60;;;0.60;;
26474;SDS011;14161;52.270;10.334;2022-09-09T05:27:07;2.72;;;0.88;;
26474;SDS011;14161;52.270;10.334;2022-09-09T05:29:37;1.58;;;0.60;;
26474;SDS011;14161;52.270;10.334;2022-09-09T05:32:05;2.58;;;0.98;;
26474;SDS011;14161;52.270;10.334;2022-09-09T05:34:30;2.55;;;0.90;;
26474;SDS011;14161;52.270;10.334;2022-09-09T05:36:56;3.03;;;0.70;;
26474;SDS011;14161;52.270;10.334;2022-09-09T05:39:23;2.42;;;0.85;;
26474;SDS011;14161;52.270;10.334;2022-09-09T05:41:48;2.95;;;0.80;;
26474;SDS011;14161;52.270;10.334;2022-09-09T05:44:14;2.42;;;0.98;;
26474;SDS011;14161;52.270;10.334;2022-09-09T05:46:39;1.70;;;0.77;;
26474;SDS011;14161;52.270;10.334;2022-09-09T05:49:05;1.50;;;0.77;;
26474;SDS011;14161;52.270;10.334;2022-09-09T05:51:32;2.10;;;0.88;;
26474;SDS011;14161;52.270;10.334;2022-09-09T05:54:02;2.78;;;1.05;;
26474;SDS011;14161;52.270;10.334;2022-09-09T05:56:31;3.03;;;0.82;;
26474;SDS011;14161;52.270;10.334;2022-09-09T05:58:58;2.10;;;1.00;;
26474;SDS011;14161;52.270;10.334;2022-09-09T06:01:25;0.68;;;0.57;;
26474;SDS011;14161;52.270;10.334;2022-09-09T06:03:53;0.98;;;0.63;;
26474;SDS011;14161;52.270;10.334;2022-09-09T06:06:25;0.95;;;0.60;;
26474;SDS011;14161;52.270;10.334;2022-09-09T06:08:54;2.85;;;0.90;;
26474;SDS011;14161;52.270;10.334;2022-09-09T06:11:26;1.25;;;0.77;;
26474;SDS011;14161;52.270;10.334;2022-09-09T06:13:52;3.83;;;0.82;;
26474;SDS011;14161;52.270;10.334;2022-09-09T06:16:21;2.78;;;0.63;;
26474;SDS011;14161;52.270;10.334;2022-09-09T06:18:51;2.53;;;0.90;;
26474;SDS011;14161;52.270;10.334;2022-09-09T06:21:22;2.08;;;1.13;;
26474;SDS011;14161;52.270;10.334;2022-09-09T06:23:55;1.40;;;0.68;;
26474;SDS011;14161;52.270;10.334;2022-09-09T06:26:21;0.85;;;0.50;;
26474;SDS011;14161;52.270;10.334;2022-09-09T06:28:50;0.80;;;0.55;;
26474;SDS011;14161;52.270;10.334;2022-09-09T06:31:19;2.40;;;0.90;;
26474;SDS011;14161;52.270;10.334;2022-09-09T06:33:47;2.53;;;0.60;;
26474;SDS011;14161;52.270;10.334;2022-09-09T06:36:15;3.03;;;1.05;;
26474;SDS011;14161;52.270;10.334;2022-09-09T06:38:43;1.73;;;0.80;;
26474;SDS011;14161;52.270;10.334;2022-09-09T06:41:12;2.67;;;0.80;;
26474;SDS011;14161;52.270;10.334;2022-09-09T06:43:39;1.35;;;0.75;;
26474;SDS011;14161;52.270;10.334;2022-09-09T06:48:32;2.78;;;0.95;;
26474;SDS011;14161;52.270;10.334;2022-09-09T06:51:18;1.52;;;0.75;;
26474;SDS011;14161;52.270;10.334;2022-09-09T06:53:46;0.90;;;0.80;;
26474;SDS011;14161;52.270;10.334;2022-09-09T06:58:41;1.20;;;0.90;;
26474;SDS011;14161;52.270;10.334;2022-09-09T07:01:20;1.63;;;0.70;;
26474;SDS011;14161;52.270;10.334;2022-09-09T07:03:51;1.13;;;0.80;;
26474;SDS011;14161;52.270;10.334;2022-09-09T07:06:20;4.85;;;0.80;;
26474;SDS011;14161;52.270;10.334;2022-09-09T07:08:49;1.77;;;0.90;;
26474;SDS011;14161;52.270;10.334;2022-09-09T07:11:16;2.83;;;0.95;;
26474;SDS011;14161;52.270;10.334;2022-09-09T07:13:42;4.90;;;1.23;;
26474;SDS011;14161;52.270;10.334;2022-09-09T07:16:11;2.78;;;0.90;;
26474;SDS011;14161;52.270;10.334;2022-09-09T07:18:39;1.83;;;0.85;;
26474;SDS011;14161;52.270;10.334;2022-09-09T07:21:06;2.28;;;0.88;;
26474;SDS011;14161;52.270;10.334;2022-09-09T07:23:32;1.42;;;0.73;;
26474;SDS011;14161;52.270;10.334;2022-09-09T07:25:58;4.60;;;0.77;;
26474;SDS011;14161;52.270;10.334;2022-09-09T07:28:25;2.58;;;0.80;;
26474;SDS011;14161;52.270;10.334;2022-09-09T07:30:56;3.55;;;0.93;;
26474;SDS011;14161;52.270;10.334;2022-09-09T07:33:25;2.13;;;0.85;;
26474;SDS011;14161;52.270;10.334;2022-09-09T07:35:51;2.17;;;0.85;;
26474;SDS011;14161;52.270;10.334;2022-09-09T07:38:17;1.98;;;0.95;;
26474;SDS011;14161;52.270;10.334;2022-09-09T07:40:44;2.72;;;1.00;;
26474;SDS011;14161;52.270;10.334;2022-09-09T07:43:09;5.28;;;1.40;;
26474;SDS011;14161;52.270;10.334;2022-09-09T07:45:36;4.90;;;1.27;;
26474;SDS011;14161;52.270;10.334;2022-09-09T07:48:01;2.38;;;0.98;;
26474;SDS011;14161;52.270;10.334;2022-09-09T07:50:27;3.63;;;0.85;;
26474;SDS011;14161;52.270;10.334;2022-09-09T07:52:53;2.65;;;1.00;;
26474;SDS011;14161;52.270;10.334;2022-09-09T07:55:22;3.15;;;0.88;;
26474;SDS011;14161;52.270;10.334;2022-09-09T07:57:52;1.10;;;0.60;;
26474;SDS011;14161;52.270;10.334;2022-09-09T08:00:19;3.05;;;1.00;;
26474;SDS011;14161;52.270;10.334;2022-09-09T08:02:51;2.55;;;0.70;;
26474;SDS011;14161;52.270;10.334;2022-09-09T08:05:19;2.20;;;0.82;;
26474;SDS011;14161;52.270;10.334;2022-09-09T08:07:44;2.25;;;0.98;;
26474;SDS011;14161;52.270;10.334;2022-09-09T08:10:10;2.60;;;0.93;;
26474;SDS011;14161;52.270;10.334;2022-09-09T08:12:39;1.27;;;0.68;;
26474;SDS011;14161;52.270;10.334;2022-09-09T08:15:05;2.97;;;0.70;;
26474;SDS011;14161;52.270;10.334;2022-09-09T08:17:32;1.50;;;0.70;;
26474;SDS011;14161;52.270;10.334;2022-09-09T08:20:01;1.60;;;0.70;;
26474;SDS011;14161;52.270;10.334;2022-09-09T08:22:30;3.83;;;0.80;;
26474;SDS011;14161;52.270;10.334;2022-09-09T08:24:56;4.25;;;1.10;;
26474;SDS011;14161;52.270;10.334;2022-09-09T08:27:22;3.13;;;1.00;;
26474;SDS011;14161;52.270;10.334;2022-09-09T08:29:47;3.83;;;0.68;;
26474;SDS011;14161;52.270;10.334;2022-09-09T08:32:13;2.17;;;0.80;;
26474;SDS011;14161;52.270;10.334;2022-09-09T08:34:39;2.15;;;0.98;;
26474;SDS011;14161;52.270;10.334;2022-09-09T08:37:08;2.92;;;1.00;;
26474;SDS011;14161;52.270;10.334;2022-09-09T08:39:37;5.95;;;1.00;;
26474;SDS011;14161;52.270;10.334;2022-09-09T08:42:46;4.85;;;1.42;;
26474;SDS011;14161;52.270;10.334;2022-09-09T08:45:20;4.13;;;1.00;;
26474;SDS011;14161;52.270;10.334;2022-09-09T08:50:22;3.55;;;1.05;;
26474;SDS011;14161;52.270;10.334;2022-09-09T08:53:05;1.30;;;0.77;;
26474;SDS011;14161;52.270;10.334;2022-09-09T08:58:15;4.05;;;1.27;;
26474;SDS011;14161;52.270;10.334;2022-09-09T09:00:50;2.42;;;1.08;;
26474;SDS011;14161;52.270;10.334;2022-09-09T09:06:43;1.75;;;0.88;;
26474;SDS011;14161;52.270;10.334;2022-09-09T09:12:22;1.10;;;0.60;;
26474;SDS011;14161;52.270;10.334;2022-09-09T09:14:52;1.98;;;0.73;;
26474;SDS011;14161;52.270;10.334;2022-09-09T09:17:21;4.03;;;0.75;;
26474;SDS011;14161;52.270;10.334;2022-09-09T09:19:49;2.03;;;0.77;;
26474;SDS011;14161;52.270;10.334;2022-09-09T09:22:19;2.22;;;0.80;;
26474;SDS011;14161;52.270;10.334;2022-09-09T09:24:55;1.63;;;0.75;;
26474;SDS011;14161;52.270;10.334;2022-09-09T09:27:33;2.60;;;0.85;;
26474;SDS011;14161;52.270;10.334;2022-09-09T09:30:17;3.47;;;1.08;;
26474;SDS011;14161;52.270;10.334;2022-09-09T09:35:43;2.33;;;0.70;;
26474;SDS011;14161;52.270;10.334;2022-09-09T09:38:17;3.33;;;0.85;;
26474;SDS011;14161;52.270;10.334;2022-09-09T09:41:05;1.75;;;0.80;;
26474;SDS011;14161;52.270;10.334;2022-09-09T09:43:35;2.05;;;0.80;;
26474;SDS011;14161;52.270;10.334;2022-09-09T09:46:17;2.22;;;0.90;;
26474;SDS011;14161;52.270;10.334;2022-09-09T09:48:55;1.77;;;0.68;;
26474;SDS011;14161;52.270;10.334;2022-09-09T09:51:26;1.70;;;0.70;;
26474;SDS011;14161;52.270;10.334;2022-09-09T09:53:52;4.93;;;1.02;;
26474;SDS011;14161;52.270;10.334;2022-09-09T09:56:26;1.38;;;0.68;;
26474;SDS011;14161;52.270;10.334;2022-09-09T09:58:54;0.68;;;0.40;;
26474;SDS011;14161;52.270;10.334;2022-09-09T10:04:12;1.90;;;0.85;;
26474;SDS011;14161;52.270;10.334;2022-09-09T10:06:41;1.20;;;0.60;;
26474;SDS011;14161;52.270;10.334;2022-09-09T10:11:55;3.92;;;0.82;;
26474;SDS011;14161;52.270;10.334;2022-09-09T10:23:12;2.95;;;0.65;;
26474;SDS011;14161;52.270;10.334;2022-09-09T10:31:11;2.83;;;0.90;;
26474;SDS011;14161;52.270;10.334;2022-09-09T10:36:46;7.45;;;0.88;;
26474;SDS011;14161;52.270;10.334;2022-09-09T10:42:06;3.85;;;0.90;;
26474;SDS011;14161;52.270;10.334;2022-09-09T10:55:37;3.30;;;0.98;;
26474;SDS011;14161;52.270;10.334;2022-09-09T10:58:09;2.67;;;1.00;;
26474;SDS011;14161;52.270;10.334;2022-09-09T11:00:42;3.38;;;0.90;;
26474;SDS011;14161;52.270;10.334;2022-09-09T11:03:29;3.85;;;0.98;;
26474;SDS011;14161;52.270;10.334;2022-09-09T11:06:04;1.90;;;0.65;;
26474;SDS011;14161;52.270;10.334;2022-09-09T11:08:32;3.05;;;1.00;;
26474;SDS011;14161;52.270;10.334;2022-09-09T11:11:19;2.25;;;0.70;;
26474;SDS011;14161;52.270;10.334;2022-09-09T11:16:28;2.78;;;0.65;;
26474;SDS011;14161;52.270;10.334;2022-09-09T11:18:58;4.95;;;1.10;;
26474;SDS011;14161;52.270;10.334;2022-09-09T11:21:29;2.05;;;0.70;;
26474;SDS011;14161;52.270;10.334;2022-09-09T11:24:02;1.63;;;0.60;;
26474;SDS011;14161;52.270;10.334;2022-09-09T11:26:36;1.58;;;0.60;;
26474;SDS011;14161;52.270;10.334;2022-09-09T11:37:10;2.95;;;0.70;;
26474;SDS011;14161;52.270;10.334;2022-09-09T11:42:44;1.83;;;0.70;;
26474;SDS011;14161;52.270;10.334;2022-09-09T11:45:24;1.92;;;0.90;;
26474;SDS011;14161;52.270;10.334;2022-09-09T11:47:54;2.53;;;0.80;;
26474;SDS011;14161;52.270;10.334;2022-09-09T11:52:49;3.22;;;0.90;;
26474;SDS011;14161;52.270;10.334;2022-09-09T11:55:25;2.53;;;0.90;;
26474;SDS011;14161;52.270;10.334;2022-09-09T11:57:59;3.08;;;0.98;;
26474;SDS011;14161;52.270;10.334;2022-09-09T12:03:38;2.60;;;1.02;;
26474;SDS011;14161;52.270;10.334;2022-09-09T12:06:17;2.85;;;0.98;;
26474;SDS011;14161;52.270;10.334;2022-09-09T12:09:26;3.47;;;0.77;;
26474;SDS011;14161;52.270;10.334;2022-09-09T12:15:17;2.15;;;0.82;;
26474;SDS011;14161;52.270;10.334;2022-09-09T12:25:57;1.83;;;0.70;;
26474;SDS011;14161;52.270;10.334;2022-09-09T12:29:07;1.25;;;0.60;;
26474;SDS011;14161;52.270;10.334;2022-09-09T12:35:07;1.55;;;0.57;;
26474;SDS011;14161;52.270;10.334;2022-09-09T12:37:46;1.77;;;0.88;;
26474;SDS011;14161;52.270;10.334;2022-09-09T12:40:30;2.17;;;0.73;;
26474;SDS011;14161;52.270;10.334;2022-09-09T12:42:57;1.35;;;0.60;;
26474;SDS011;14161;52.270;10.334;2022-09-09T12:45:27;5.40;;;0.85;;
26474;SDS011;14161;52.270;10.334;2022-09-09T12:48:07;2.75;;;0.90;;
26474;SDS011;14161;52.270;10.334;2022-09-09T12:50:37;3.78;;;1.17;;
26474;SDS011;14161;52.270;10.334;2022-09-09T12:53:08;2.67;;;0.65;;
26474;SDS011;14161;52.270;10.334;2022-09-09T12:55:41;5.03;;;1.00;;
26474;SDS011;14161;52.270;10.334;2022-09-09T12:58:20;1.85;;;0.75;;
26474;SDS011;14161;52.270;10.334;2022-09-09T13:00:49;4.57;;;0.57;;
26474;SDS011;14161;52.270;10.334;2022-09-09T13:03:21;1.20;;;0.40;;
26474;SDS011;14161;52.270;10.334;2022-09-09T13:05:46;1.70;;;0.75;;
26474;SDS011;14161;52.270;10.334;2022-09-09T13:12:19;0.43;;;0.40;;
26474;SDS011;14161;52.270;10.334;2022-09-09T13:14:46;2.33;;;0.50;;
26474;SDS011;14161;52.270;10.334;2022-09-09T13:17:21;2.50;;;0.70;;
26474;SDS011;14161;52.270;10.334;2022-09-09T13:19:49;4.22;;;1.20;;
26474;SDS011;14161;52.270;10.334;2022-09-09T13:25:20;3.88;;;1.65;;
26474;SDS011;14161;52.270;10.334;2022-09-09T13:28:03;3.20;;;1.30;;
26474;SDS011;14161;52.270;10.334;2022-09-09T13:30:36;3.97;;;1.90;;
26474;SDS011;14161;52.270;10.334;2022-09-09T13:35:32;6.70;;;4.50;;
26474;SDS011;14161;52.270;10.334;2022-09-09T13:37:58;9.90;;;5.97;;
26474;SDS011;14161;52.270;10.334;2022-09-09T13:40:25;6.38;;;3.60;;
26474;SDS011;14161;52.270;10.334;2022-09-09T13:42:55;6.00;;;2.78;;
26474;SDS011;14161;52.270;10.334;2022-09-09T13:45:22;10.65;;;5.85;;
26474;SDS011;14161;52.270;10.334;2022-09-09T13:47:51;8.07;;;4.25;;
26474;SDS011;14161;52.270;10.334;2022-09-09T13:52:49;3.88;;;1.60;;
26474;SDS011;14161;52.270;10.334;2022-09-09T13:55:18;4.35;;;2.08;;
26474;SDS011;14161;52.270;10.334;2022-09-09T13:57:56;4.22;;;2.42;;
26474;SDS011;14161;52.270;10.334;2022-09-09T14:00:26;3.38;;;1.60;;
26474;SDS011;14161;52.270;10.334;2022-09-09T14:02:53;6.13;;;1.73;;
26474;SDS011;14161;52.270;10.334;2022-09-09T14:05:32;2.58;;;1.23;;
26474;SDS011;14161;52.270;10.334;2022-09-09T14:08:34;2.72;;;1.08;;
26474;SDS011;14161;52.270;10.334;2022-09-09T14:11:05;1.77;;;0.90;;
26474;SDS011;14161;52.270;10.334;2022-09-09T14:13:30;1.98;;;0.80;;
26474;SDS011;14161;52.270;10.334;2022-09-09T14:15:56;1.95;;;0.75;;
26474;SDS011;14161;52.270;10.334;2022-09-09T14:18:21;1.27;;;0.90;;
26474;SDS011;14161;52.270;10.334;2022-09-09T14:20:48;2.20;;;1.02;;
26474;SDS011;14161;52.270;10.334;2022-09-09T14:23:15;2.80;;;1.10;;
26474;SDS011;14161;52.270;10.334;2022-09-09T14:25:41;1.92;;;0.75;;
26474;SDS011;14161;52.270;10.334;2022-09-09T14:28:11;1.23;;;0.52;;
26474;SDS011;14161;52.270;10.334;2022-09-09T14:30:38;1.75;;;0.75;;
26474;SDS011;14161;52.270;10.334;2022-09-09T14:33:04;2.15;;;0.80;;
26474;SDS011;14161;52.270;10.334;2022-09-09T14:35:30;0.75;;;0.55;;
26474;SDS011;14161;52.270;10.334;2022-09-09T14:37:55;1.52;;;0.90;;
26474;SDS011;14161;52.270;10.334;2022-09-09T14:40:24;1.30;;;0.70;;
26474;SDS011;14161;52.270;10.334;2022-09-09T14:43:02;2.38;;;0.60;;
26474;SDS011;14161;52.270;10.334;2022-09-09T14:45:28;2.17;;;0.63;;
26474;SDS011;14161;52.270;10.334;2022-09-09T14:47:54;1.88;;;0.75;;
26474;SDS011;14161;52.270;10.334;2022-09-09T14:50:20;1.85;;;0.73;;
26474;SDS011;14161;52.270;10.334;2022-09-09T14:52:46;2.05;;;0.90;;
26474;SDS011;14161;52.270;10.334;2022-09-09T14:55:11;3.30;;;0.80;;
26474;SDS011;14161;52.270;10.334;2022-09-09T14:57:37;1.55;;;0.63;;
26474;SDS011;14161;52.270;10.334;2022-09-09T15:00:05;2.92;;;0.70;;
26474;SDS011;14161;52.270;10.334;2022-09-09T15:02:32;2.60;;;0.77;;
26474;SDS011;14161;52.270;10.334;2022-09-09T15:04:57;3.25;;;0.88;;
26474;SDS011;14161;52.270;10.334;2022-09-09T15:07:23;2.08;;;0.68;;
26474;SDS011;14161;52.270;10.334;2022-09-09T15:09:49;2.30;;;0.70;;
26474;SDS011;14161;52.270;10.334;2022-09-09T15:12:15;2.30;;;0.68;;
26474;SDS011;14161;52.270;10.334;2022-09-09T15:14:43;3.38;;;0.98;;
26474;SDS011;14161;52.270;10.334;2022-09-09T15:17:09;2.70;;;0.80;;
26474;SDS011;14161;52.270;10.334;2022-09-09T15:19:34;1.52;;;0.65;;
26474;SDS011;14161;52.270;10.334;2022-09-09T15:22:01;2.58;;;0.70;;
26474;SDS011;14161;52.270;10.334;2022-09-09T15:24:26;1.35;;;0.60;;
26474;SDS011;14161;52.270;10.334;2022-09-09T15:26:51;1.83;;;0.80;;
26474;SDS011;14161;52.270;10.334;2022-09-09T15:29:17;2.63;;;0.85;;
26474;SDS011;14161;52.270;10.334;2022-09-09T15:31:44;1.60;;;0.60;;
26474;SDS011;14161;52.270;10.334;2022-09-09T15:34:09;1.98;;;0.90;;
26474;SDS011;14161;52.270;10.334;2022-09-09T15:36:35;1.48;;;0.60;;
26474;SDS011;14161;52.270;10.334;2022-09-09T15:39:03;1.50;;;0.70;;
26474;SDS011;14161;52.270;10.334;2022-09-09T15:41:30;1.40;;;0.80;;
26474;SDS011;14161;52.270;10.334;2022-09-09T15:43:59;2.03;;;0.80;;
26474;SDS011;14161;52.270;10.334;2022-09-09T15:46:32;1.80;;;0.60;;
26474;SDS011;14161;52.270;10.334;2022-09-09T15:49:11;1.37;;;0.60;;
26474;SDS011;14161;52.270;10.334;2022-09-09T15:51:38;1.60;;;0.50;;
26474;SDS011;14161;52.270;10.334;2022-09-09T15:54:05;2.38;;;0.55;;
26474;SDS011;14161;52.270;10.334;2022-09-09T15:56:30;1.55;;;0.63;;
26474;SDS011;14161;52.270;10.334;2022-09-09T15:58:57;0.63;;;0.40;;
26474;SDS011;14161;52.270;10.334;2022-09-09T16:01:24;0.90;;;0.40;;
26474;SDS011;14161;52.270;10.334;2022-09-09T16:03:50;2.35;;;0.73;;
26474;SDS011;14161;52.270;10.334;2022-09-09T16:06:17;4.20;;;0.77;;
26474;SDS011;14161;52.270;10.334;2022-09-09T16:08:44;1.48;;;0.47;;
26474;SDS011;14161;52.270;10.334;2022-09-09T16:11:15;2.72;;;0.50;;
26474;SDS011;14161;52.270;10.334;2022-09-09T16:13:45;1.60;;;0.63;;
26474;SDS011;14161;52.270;10.334;2022-09-09T16:16:11;1.00;;;0.70;;
26474;SDS011;14161;52.270;10.334;2022-09-09T16:18:46;1.90;;;0.70;;
26474;SDS011;14161;52.270;10.334;2022-09-09T16:21:14;1.88;;;0.68;;
26474;SDS011;14161;52.270;10.334;2022-09-09T16:23:40;1.77;;;0.50;;
26474;SDS011;14161;52.270;10.334;2022-09-09T16:26:06;1.38;;;0.60;;
26474;SDS011;14161;52.270;10.334;2022-09-09T16:28:33;1.08;;;0.50;;
26474;SDS011;14161;52.270;10.334;2022-09-09T16:30:58;0.63;;;0.50;;
26474;SDS011;14161;52.270;10.334;2022-09-09T16:33:29;1.63;;;0.80;;
26474;SDS011;14161;52.270;10.334;2022-09-09T16:35:55;1.55;;;0.73;;
26474;SDS011;14161;52.270;10.334;2022-09-09T16:38:20;1.17;;;0.43;;
26474;SDS011;14161;52.270;10.334;2022-09-09T16:40:49;1.75;;;0.75;;
26474;SDS011;14161;52.270;10.334;2022-09-09T16:43:15;1.92;;;0.75;;
26474;SDS011;14161;52.270;10.334;2022-09-09T16:45:44;1.88;;;0.68;;
26474;SDS011;14161;52.270;10.334;2022-09-09T16:48:10;2.15;;;0.60;;
26474;SDS011;14161;52.270;10.334;2022-09-09T16:50:51;1.27;;;0.60;;
26474;SDS011;14161;52.270;10.334;2022-09-09T16:53:20;1.52;;;0.77;;
26474;SDS011;14161;52.270;10.334;2022-09-09T16:55:46;1.38;;;0.60;;
26474;SDS011;14161;52.270;10.334;2022-09-09T16:58:11;1.63;;;0.70;;
26474;SDS011;14161;52.270;10.334;2022-09-09T17:00:39;3.70;;;0.70;;
26474;SDS011;14161;52.270;10.334;2022-09-09T17:03:05;1.63;;;0.85;;
26474;SDS011;14161;52.270;10.334;2022-09-09T17:05:31;1.58;;;0.55;;
26474;SDS011;14161;52.270;10.334;2022-09-09T17:07:57;2.42;;;0.68;;
26474;SDS011;14161;52.270;10.334;2022-09-09T17:10:23;3.20;;;0.80;;
26474;SDS011;14161;52.270;10.334;2022-09-09T17:12:50;1.70;;;0.70;;